KBUU Airport Information

Runway Information
Runway 01 Length 2477 ft width 130 ft
Elevation 773 ft Threshold 0 ft Heading 12
Runway 19 Length 2477 ft Width 130 ft
Elevation 775 ft Threshold 0 ft Heading 192
Runway 11 Length 4300 ft width 75 ft
Elevation 777 ft Threshold 0 ft Heading 109
Runway 29 Length 4300 ft Width 75 ft
Elevation 776 ft Threshold 0 ft Heading 289
Airport Frequencies
Type A/D Name MILWAUKEE Frequency 125.35 MHZ
Type AWOS Name AWOS 3 Frequency 114.5 MHZ
Type UNIC Name CTAF/UNICO Frequency 123.05 MHZ
Airport Navaids
Airport Weather Information & NOTAM
ADDS - METARS form results

(0252 UTC 20 January 2019)
Data provider http://aviationweather.gov/metar/data/
 
METAR text: KBUU 200235Z AUTO 35009KT 10SM CLR M13/M18 A3013 RMK AO2 T11301185
Conditions at: KBUU (BURLINGTON , WI, US) observed 0235 UTC 20 January 2019
Temperature: -13.0°C ( 9°F)
Dewpoint: -18.5°C (-1°F) [RH = 63%]
Pressure (altimeter): 30.13 inches Hg (1020.4 mb)
Winds: from the N (350 degrees) at 10 MPH (9 knots; 4.6 m/s)
Visibility: 10 or more miles (16+ km)
Ceiling: at least 12,000 feet AGL
Clouds: sky clear below 12,000 feet AGL
Weather: automated observation with no human augmentation;
there may or may not be significant weather present at this time

METAR text: KBUU 200215Z AUTO 35009KT 10SM CLR M13/M17 A3014 RMK AO2 T11291175
Conditions at: KBUU (BURLINGTON , WI, US) observed 0215 UTC 20 January 2019
Temperature: -12.9°C ( 9°F)
Dewpoint: -17.5°C ( 0°F) [RH = 68%]
Pressure (altimeter): 30.14 inches Hg (1020.7 mb)
Winds: from the N (350 degrees) at 10 MPH (9 knots; 4.6 m/s)
Visibility: 10 or more miles (16+ km)
Ceiling: at least 12,000 feet AGL
Clouds: sky clear below 12,000 feet AGL
Weather: automated observation with no human augmentation;
there may or may not be significant weather present at this time

METAR text: KBUU 200155Z AUTO 01011G16KT 10SM CLR M12/M17 A3014 RMK AO2 T11221172
Conditions at: KBUU (BURLINGTON , WI, US) observed 0155 UTC 20 January 2019
Temperature: -12.2°C (10°F)
Dewpoint: -17.2°C ( 1°F) [RH = 66%]
Pressure (altimeter): 30.14 inches Hg (1020.7 mb)
Winds: from the N (10 degrees) at 13 MPH (11 knots; 5.7 m/s)
gusting to 18 MPH (16 knots; 8.2 m/s)
Visibility: 10 or more miles (16+ km)
Ceiling: at least 12,000 feet AGL
Clouds: sky clear below 12,000 feet AGL
Weather: automated observation with no human augmentation;
there may or may not be significant weather present at this time